Time;durP1;ratioP1;P1;durP2;ratioP2;P2;SDS_P1;SDS_P2;PMS_P1;PMS_P2;Temp;Humidity;BMP_temperature;BMP_pressure;BME280_temperature;BME280_humidity;BME280_pressure;Samples;Min_cycle;Max_cycle;Signal;HPM_P1;HPM_P2
2022/07/30 00:01:04;;;;;;;;;;;20.20;99.90;;;;;;5097905;28;19957;-78
2022/07/30 00:03:29;;;;;;;;;;;20.10;99.90;;;;;;5096635;28;19915;-78
2022/07/30 00:05:55;;;;;;;;;;;20.10;99.90;;;;;;5096748;28;19916;-80
2022/07/30 00:08:21;;;;;;;;;;;20.00;99.90;;;;;;5096239;28;19920;-79
2022/07/30 00:10:47;;;;;;;;;;;20.10;99.90;;;;;;5097315;28;19909;-79
2022/07/30 00:13:13;;;;;;;;;;;20.00;99.90;;;;;;5096809;28;19915;-79
2022/07/30 00:15:41;;;;;;;;;;;20.00;99.90;;;;;;5096534;28;19962;-79
2022/07/30 00:18:07;;;;;;;;;;;20.10;99.90;;;;;;5096282;28;20416;-79
2022/07/30 00:20:32;;;;;;;;;;;20.00;99.90;;;;;;5096406;28;19908;-79
2022/07/30 00:23:01;;;;;;;;;;;20.00;99.90;;;;;;5096049;28;19915;-80
2022/07/30 00:25:26;;;;;;;;;;;19.90;99.90;;;;;;5096335;28;20275;-79
2022/07/30 00:27:52;;;;;;;;;;;19.90;99.90;;;;;;5095777;28;19912;-79
2022/07/30 00:30:17;;;;;;;;;;;19.90;99.90;;;;;;5096253;28;19915;-79
2022/07/30 00:32:43;;;;;;;;;;;19.90;99.90;;;;;;5096493;28;19909;-79
2022/07/30 00:35:09;;;;;;;;;;;19.80;99.90;;;;;;5095846;28;19944;-79
2022/07/30 00:37:35;;;;;;;;;;;19.80;99.90;;;;;;5095411;28;19914;-78
2022/07/30 00:40:00;;;;;;;;;;;19.80;99.90;;;;;;5095887;28;19920;-79
2022/07/30 00:42:39;;;;;;;;;;;19.60;99.90;;;;;;5095547;28;20344;-79
2022/07/30 00:45:05;;;;;;;;;;;19.60;99.90;;;;;;5095030;28;19915;-78
2022/07/30 00:47:31;;;;;;;;;;;19.60;99.90;;;;;;5094973;28;19912;-79
2022/07/30 00:49:57;;;;;;;;;;;19.60;99.90;;;;;;5095912;28;19908;-78
2022/07/30 00:52:22;;;;;;;;;;;19.60;99.90;;;;;;5098644;28;19908;-78
2022/07/30 00:54:48;;;;;;;;;;;19.50;99.90;;;;;;5098943;28;20355;-79
2022/07/30 00:57:13;;;;;;;;;;;19.50;99.90;;;;;;5098609;28;19908;-78
2022/07/30 00:59:39;;;;;;;;;;;19.40;99.90;;;;;;5099039;28;19908;-78
2022/07/30 01:02:05;;;;;;;;;;;19.40;99.90;;;;;;5098824;28;19955;-79
2022/07/30 01:04:30;;;;;;;;;;;19.40;99.90;;;;;;5098507;28;20007;-79
2022/07/30 01:06:56;;;;;;;;;;;19.20;99.90;;;;;;5097654;28;19916;-78
2022/07/30 01:09:21;;;;;;;;;;;19.10;99.90;;;;;;5097682;28;19961;-78
2022/07/30 01:11:47;;;;;;;;;;;19.10;99.90;;;;;;5097847;28;19908;-79
2022/07/30 01:14:13;;;;;;;;;;;19.10;99.90;;;;;;5097300;28;19961;-79
2022/07/30 01:16:40;;;;;;;;;;;19.10;99.90;;;;;;5097342;28;20337;-78
2022/07/30 01:22:05;;;;;;;;;;;19.00;99.90;;;;;;5099495;28;19914;-78
2022/07/30 01:24:37;;;;;;;;;;;18.90;99.90;;;;;;5096946;28;19908;-79
2022/07/30 01:27:03;;;;;;;;;;;18.90;99.90;;;;;;5096842;28;19916;-79
2022/07/30 01:29:30;;;;;;;;;;;18.90;99.90;;;;;;5097173;28;20007;-78
2022/07/30 01:31:58;;;;;;;;;;;18.90;99.90;;;;;;5096699;28;19915;-79
2022/07/30 01:34:28;;;;;;;;;;;18.80;99.90;;;;;;5097223;28;19909;-78
2022/07/30 01:36:55;;;;;;;;;;;18.90;99.90;;;;;;5097420;28;19908;-78
2022/07/30 01:39:21;;;;;;;;;;;18.80;99.90;;;;;;5096681;28;19908;-78
2022/07/30 01:41:48;;;;;;;;;;;18.80;99.90;;;;;;5097277;28;19966;-79
2022/07/30 01:44:15;;;;;;;;;;;18.80;99.90;;;;;;5096563;28;19915;-78
2022/07/30 01:46:41;;;;;;;;;;;18.70;99.90;;;;;;5095846;28;19912;-78
2022/07/30 01:49:07;;;;;;;;;;;18.70;99.90;;;;;;5096115;28;20023;-78
2022/07/30 01:51:33;;;;;;;;;;;18.60;99.90;;;;;;5101663;28;19944;-79
2022/07/30 01:53:59;;;;;;;;;;;18.70;99.90;;;;;;5102438;28;19908;-79
2022/07/30 01:56:25;;;;;;;;;;;18.60;99.90;;;;;;5101129;28;19947;-79
2022/07/30 01:58:51;;;;;;;;;;;18.60;99.90;;;;;;5100661;28;19912;-79
2022/07/30 02:01:17;;;;;;;;;;;18.50;99.90;;;;;;5099415;28;19908;-78
2022/07/30 02:03:42;;;;;;;;;;;18.50;99.90;;;;;;5100535;28;19908;-78
2022/07/30 02:06:10;;;;;;;;;;;18.50;99.90;;;;;;5099258;28;19912;-78
2022/07/30 02:08:42;;;;;;;;;;;18.40;99.90;;;;;;5099497;28;19930;-79
2022/07/30 02:11:09;;;;;;;;;;;18.40;99.90;;;;;;5099959;28;19915;-79
2022/07/30 02:13:40;;;;;;;;;;;18.40;99.90;;;;;;5098710;28;19908;-78
2022/07/30 02:16:12;;;;;;;;;;;18.40;99.90;;;;;;5098530;28;19915;-79
2022/07/30 02:18:42;;;;;;;;;;;18.30;99.90;;;;;;5098296;28;19908;-79
2022/07/30 02:21:09;;;;;;;;;;;18.30;99.90;;;;;;5098316;28;19977;-78
2022/07/30 02:23:39;;;;;;;;;;;18.30;99.90;;;;;;5098195;28;19915;-79
2022/07/30 02:26:07;;;;;;;;;;;18.30;99.90;;;;;;5097632;28;20181;-78
2022/07/30 02:28:35;;;;;;;;;;;18.30;99.90;;;;;;5097783;28;19918;-78
2022/07/30 02:31:01;;;;;;;;;;;18.20;99.90;;;;;;5097790;28;19909;-79
2022/07/30 02:33:29;;;;;;;;;;;18.20;99.90;;;;;;5097464;28;19980;-79
2022/07/30 02:35:59;;;;;;;;;;;18.20;99.90;;;;;;5096580;28;19965;-78
2022/07/30 02:38:27;;;;;;;;;;;18.20;99.90;;;;;;5096610;28;19999;-78
2022/07/30 02:40:54;;;;;;;;;;;18.20;99.90;;;;;;5096810;28;20001;-78
2022/07/30 02:43:23;;;;;;;;;;;18.20;99.90;;;;;;5097036;28;19908;-78
2022/07/30 02:45:49;;;;;;;;;;;18.20;99.90;;;;;;5096669;28;20003;-79
2022/07/30 02:48:15;;;;;;;;;;;18.20;99.90;;;;;;5096669;28;20005;-78
2022/07/30 02:50:42;;;;;;;;;;;18.20;99.90;;;;;;5096255;28;19908;-79
2022/07/30 02:53:08;;;;;;;;;;;18.20;99.90;;;;;;5095816;28;19998;-78
2022/07/30 02:55:35;;;;;;;;;;;18.20;99.90;;;;;;5095397;28;19912;-79
2022/07/30 02:58:04;;;;;;;;;;;18.20;99.90;;;;;;5095830;28;19912;-78
2022/07/30 03:00:30;;;;;;;;;;;18.20;99.90;;;;;;5095945;28;19908;-78
2022/07/30 03:02:56;;;;;;;;;;;18.20;99.90;;;;;;5095503;28;20284;-78
2022/07/30 03:05:22;;;;;;;;;;;18.20;99.90;;;;;;5096058;28;19957;-78
2022/07/30 03:07:48;;;;;;;;;;;18.20;99.90;;;;;;5095210;28;20283;-79
2022/07/30 03:10:14;;;;;;;;;;;18.20;99.90;;;;;;5095618;28;20317;-79
2022/07/30 03:12:43;;;;;;;;;;;18.20;99.90;;;;;;5094565;28;20095;-79
2022/07/30 03:15:09;;;;;;;;;;;18.20;99.90;;;;;;5094314;28;20069;-79
2022/07/30 03:17:37;;;;;;;;;;;18.20;99.90;;;;;;5094805;28;19951;-78
2022/07/30 03:20:06;;;;;;;;;;;18.20;99.90;;;;;;5095500;28;19908;-78
2022/07/30 03:22:33;;;;;;;;;;;18.10;99.90;;;;;;5094435;28;19965;-78
2022/07/30 03:25:00;;;;;;;;;;;18.10;99.90;;;;;;5094203;28;20363;-78
2022/07/30 03:27:25;;;;;;;;;;;18.00;99.90;;;;;;5093568;28;19919;-78
2022/07/30 03:29:53;;;;;;;;;;;18.10;99.90;;;;;;5094824;28;19908;-78
2022/07/30 03:32:19;;;;;;;;;;;18.00;99.90;;;;;;5098246;28;19944;-79
2022/07/30 03:34:44;;;;;;;;;;;18.00;99.90;;;;;;5099294;28;19908;-79
2022/07/30 03:37:11;;;;;;;;;;;18.00;99.90;;;;;;5098618;28;19908;-79
2022/07/30 03:39:37;;;;;;;;;;;18.00;99.90;;;;;;5099126;28;19915;-79
2022/07/30 03:42:03;;;;;;;;;;;18.00;99.90;;;;;;5097822;28;19909;-79
2022/07/30 03:44:29;;;;;;;;;;;17.90;99.90;;;;;;5098018;28;19908;-78
2022/07/30 03:46:56;;;;;;;;;;;17.90;99.90;;;;;;5097672;28;20329;-78
2022/07/30 03:49:22;;;;;;;;;;;17.90;99.90;;;;;;5097534;28;20399;-79
2022/07/30 03:51:48;;;;;;;;;;;17.90;99.90;;;;;;5096711;28;19939;-78
2022/07/30 03:54:14;;;;;;;;;;;17.90;99.90;;;;;;5096672;28;19911;-79
2022/07/30 03:56:40;;;;;;;;;;;17.90;99.90;;;;;;5096972;28;19915;-78
2022/07/30 03:59:09;;;;;;;;;;;17.90;99.90;;;;;;5096186;28;19908;-78
2022/07/30 04:01:35;;;;;;;;;;;17.90;99.90;;;;;;5096245;28;20053;-78
2022/07/30 04:04:07;;;;;;;;;;;17.90;99.90;;;;;;5095773;28;19947;-79
2022/07/30 04:06:38;;;;;;;;;;;17.90;99.90;;;;;;5095487;28;19916;-78
2022/07/30 04:09:05;;;;;;;;;;;17.80;99.90;;;;;;5112753;22;19931;-89
2022/07/30 04:11:30;;;;;;;;;;;17.80;99.90;;;;;;5089018;28;20018;-89
2022/07/30 04:13:56;;;;;;;;;;;17.80;99.90;;;;;;5097334;28;19923;-88
2022/07/30 04:16:29;;;;;;;;;;;17.80;99.90;;;;;;5096254;28;20003;-89
2022/07/30 04:18:57;;;;;;;;;;;17.80;99.90;;;;;;5096589;28;19916;-89
2022/07/30 04:21:26;;;;;;;;;;;17.80;99.90;;;;;;5097494;28;19957;-89
2022/07/30 04:23:53;;;;;;;;;;;17.80;99.90;;;;;;5097045;28;20415;-89
2022/07/30 04:26:18;;;;;;;;;;;17.70;99.90;;;;;;5100642;28;20379;-89
2022/07/30 04:28:44;;;;;;;;;;;17.70;99.90;;;;;;5100816;28;19991;-88
2022/07/30 04:31:10;;;;;;;;;;;17.70;99.90;;;;;;5101322;28;19909;-89
2022/07/30 04:33:36;;;;;;;;;;;17.70;99.90;;;;;;5101610;28;20387;-89
2022/07/30 04:36:09;;;;;;;;;;;17.70;99.90;;;;;;5101928;28;19961;-89
2022/07/30 04:38:34;;;;;;;;;;;17.70;99.90;;;;;;5100408;28;19951;-89
2022/07/30 04:41:00;;;;;;;;;;;17.80;99.90;;;;;;5100312;28;19919;-88
2022/07/30 04:43:26;;;;;;;;;;;17.80;99.90;;;;;;5100690;28;20383;-89
2022/07/30 04:45:51;;;;;;;;;;;17.80;99.90;;;;;;5101154;28;19912;-89
2022/07/30 04:48:17;;;;;;;;;;;17.90;99.90;;;;;;5100558;28;19912;-89
2022/07/30 04:50:45;;;;;;;;;;;17.90;99.90;;;;;;5100917;28;19966;-89
2022/07/30 04:53:11;;;;;;;;;;;17.90;99.90;;;;;;5100885;28;20003;-89
2022/07/30 04:55:39;;;;;;;;;;;17.90;99.90;;;;;;5101314;28;20344;-89
2022/07/30 04:58:06;;;;;;;;;;;18.00;99.90;;;;;;5100889;28;19908;-88
2022/07/30 05:00:32;;;;;;;;;;;17.90;99.90;;;;;;5101915;28;19955;-89
2022/07/30 05:02:59;;;;;;;;;;;17.90;99.90;;;;;;5101374;28;19958;-90
2022/07/30 05:05:26;;;;;;;;;;;18.00;99.90;;;;;;5101297;28;19909;-89
2022/07/30 05:07:53;;;;;;;;;;;18.00;99.90;;;;;;5100824;28;19923;-89
2022/07/30 05:10:18;;;;;;;;;;;18.00;99.90;;;;;;5101287;28;19954;-89
2022/07/30 05:12:44;;;;;;;;;;;18.00;99.90;;;;;;5101479;28;19908;-88
2022/07/30 05:15:10;;;;;;;;;;;17.90;99.90;;;;;;5100851;28;19991;-88
2022/07/30 05:17:36;;;;;;;;;;;17.90;99.90;;;;;;5100813;28;19908;-89
2022/07/30 05:20:02;;;;;;;;;;;18.00;99.90;;;;;;5100388;28;19962;-88
2022/07/30 05:22:29;;;;;;;;;;;18.00;99.90;;;;;;5100647;28;20462;-90
2022/07/30 05:24:55;;;;;;;;;;;18.00;99.90;;;;;;5100392;28;19916;-89
2022/07/30 05:27:21;;;;;;;;;;;18.00;99.90;;;;;;5100135;28;19912;-88
2022/07/30 05:29:50;;;;;;;;;;;18.00;99.90;;;;;;5099729;28;19908;-89
2022/07/30 05:32:15;;;;;;;;;;;18.10;99.90;;;;;;5100076;28;19908;-88
2022/07/30 05:34:41;;;;;;;;;;;18.10;99.90;;;;;;5099564;28;20381;-88
2022/07/30 05:37:06;;;;;;;;;;;18.10;99.90;;;;;;5099087;28;19915;-89
2022/07/30 05:39:32;;;;;;;;;;;18.10;99.90;;;;;;5099385;28;19918;-88
2022/07/30 05:41:57;;;;;;;;;;;18.30;99.90;;;;;;5098239;28;20289;-88
2022/07/30 05:44:23;;;;;;;;;;;18.30;99.90;;;;;;5099677;28;19990;-89
2022/07/30 05:46:49;;;;;;;;;;;18.40;99.90;;;;;;5099658;28;19912;-88
2022/07/30 05:49:14;;;;;;;;;;;18.30;99.90;;;;;;5098986;28;19908;-89
2022/07/30 05:51:40;;;;;;;;;;;18.30;99.90;;;;;;5098765;28;19931;-89
2022/07/30 05:54:06;;;;;;;;;;;18.30;99.90;;;;;;5099390;28;19958;-88
2022/07/30 05:56:31;;;;;;;;;;;18.40;99.90;;;;;;5099489;28;19959;-89
2022/07/30 05:58:57;;;;;;;;;;;18.40;99.90;;;;;;5100563;28;19908;-88
2022/07/30 06:01:23;;;;;;;;;;;18.50;99.90;;;;;;5100233;28;19911;-89
2022/07/30 06:03:48;;;;;;;;;;;18.60;99.90;;;;;;5100356;28;20372;-89
2022/07/30 06:06:14;;;;;;;;;;;18.60;99.90;;;;;;5100979;28;19930;-90
2022/07/30 06:08:39;;;;;;;;;;;18.60;99.90;;;;;;5099822;28;19923;-89
2022/07/30 06:11:07;;;;;;;;;;;18.70;99.90;;;;;;5100136;28;19935;-89
2022/07/30 06:13:33;;;;;;;;;;;18.90;99.90;;;;;;5099992;28;19957;-89
2022/07/30 06:15:59;;;;;;;;;;;19.10;99.90;;;;;;5100008;28;19908;-89
2022/07/30 06:18:24;;;;;;;;;;;19.20;99.90;;;;;;5099313;28;19930;-89
2022/07/30 06:20:50;;;;;;;;;;;19.30;99.90;;;;;;5099732;28;20314;-89
2022/07/30 06:23:16;;;;;;;;;;;19.30;99.90;;;;;;5098621;28;19908;-88
2022/07/30 06:25:42;;;;;;;;;;;19.40;99.90;;;;;;5097086;28;20003;-89
2022/07/30 06:28:07;;;;;;;;;;;19.40;99.90;;;;;;5097900;28;19913;-89
2022/07/30 06:30:33;;;;;;;;;;;19.20;99.90;;;;;;5097253;28;20323;-89
2022/07/30 06:32:58;;;;;;;;;;;19.20;99.90;;;;;;5097187;28;20254;-89
2022/07/30 06:35:24;;;;;;;;;;;19.20;99.90;;;;;;5096019;28;20002;-89
2022/07/30 06:37:50;;;;;;;;;;;19.40;99.90;;;;;;5096689;28;19909;-89
2022/07/30 06:40:15;;;;;;;;;;;19.40;99.90;;;;;;5096762;28;19909;-89
2022/07/30 06:42:41;;;;;;;;;;;19.40;99.90;;;;;;5096666;28;19947;-89
2022/07/30 06:45:07;;;;;;;;;;;19.40;99.90;;;;;;5096400;28;19908;-89
2022/07/30 06:47:33;;;;;;;;;;;19.40;99.90;;;;;;5094740;28;19916;-90
2022/07/30 06:50:00;;;;;;;;;;;19.70;99.90;;;;;;5096235;28;19908;-89
2022/07/30 06:52:26;;;;;;;;;;;19.80;99.90;;;;;;5096229;28;19915;-89
2022/07/30 06:54:51;;;;;;;;;;;19.90;99.90;;;;;;5095997;28;19912;-89
2022/07/30 06:57:17;;;;;;;;;;;20.10;99.90;;;;;;5096521;28;19915;-89
2022/07/30 06:59:43;;;;;;;;;;;20.30;99.90;;;;;;5096046;28;19915;-90
2022/07/30 07:02:09;;;;;;;;;;;20.40;99.90;;;;;;5095633;28;19987;-88
2022/07/30 07:04:35;;;;;;;;;;;20.60;99.90;;;;;;5094963;28;19955;-90
2022/07/30 07:07:01;;;;;;;;;;;20.50;99.90;;;;;;5095313;28;19912;-89
2022/07/30 07:09:28;;;;;;;;;;;20.50;99.90;;;;;;5095252;28;19959;-89
2022/07/30 07:11:53;;;;;;;;;;;20.50;99.90;;;;;;5095919;28;19958;-88
2022/07/30 07:14:19;;;;;;;;;;;20.50;99.90;;;;;;5096936;28;19908;-89
2022/07/30 07:16:46;;;;;;;;;;;20.60;99.90;;;;;;5096660;28;19909;-90
2022/07/30 07:19:12;;;;;;;;;;;20.80;99.90;;;;;;5095242;28;20035;-89
2022/07/30 07:21:37;;;;;;;;;;;21.10;99.90;;;;;;5097799;28;20028;-89
2022/07/30 07:24:04;;;;;;;;;;;21.10;99.90;;;;;;5095938;28;19919;-88
2022/07/30 07:26:30;;;;;;;;;;;21.10;99.90;;;;;;5095904;28;19914;-90
2022/07/30 07:28:55;;;;;;;;;;;21.10;99.90;;;;;;5096686;28;19991;-90
2022/07/30 07:31:21;;;;;;;;;;;21.30;99.90;;;;;;5095192;28;20344;-89
2022/07/30 07:33:47;;;;;;;;;;;21.50;99.90;;;;;;5094382;28;19908;-89
2022/07/30 07:36:13;;;;;;;;;;;21.60;99.90;;;;;;5095516;28;19908;-90
2022/07/30 07:38:39;;;;;;;;;;;21.40;99.90;;;;;;5095335;28;19908;-90
2022/07/30 07:41:04;;;;;;;;;;;21.30;99.90;;;;;;5094684;28;20003;-89
2022/07/30 07:43:30;;;;;;;;;;;21.30;99.90;;;;;;5095081;28;19909;-89
2022/07/30 07:45:57;;;;;;;;;;;21.30;99.90;;;;;;5094842;28;20460;-89
2022/07/30 07:48:23;;;;;;;;;;;21.20;99.90;;;;;;5093462;28;20403;-89
2022/07/30 07:50:48;;;;;;;;;;;21.10;99.90;;;;;;5092778;28;19908;-90
2022/07/30 07:53:14;;;;;;;;;;;21.20;99.90;;;;;;5092770;28;19908;-91
2022/07/30 07:55:39;;;;;;;;;;;21.40;99.90;;;;;;5092249;28;20331;-90
2022/07/30 07:58:05;;;;;;;;;;;21.50;99.90;;;;;;5092148;28;19908;-89
2022/07/30 08:00:31;;;;;;;;;;;21.60;99.90;;;;;;5096634;28;19908;-90
2022/07/30 08:02:56;;;;;;;;;;;21.80;99.90;;;;;;5098038;28;19915;-90
2022/07/30 08:05:22;;;;;;;;;;;22.10;99.90;;;;;;5097672;28;19956;-89
2022/07/30 08:07:48;;;;;;;;;;;23.00;99.90;;;;;;5096974;28;19918;-90
2022/07/30 08:10:14;;;;;;;;;;;23.70;99.90;;;;;;5097233;28;19912;-90
2022/07/30 08:12:41;;;;;;;;;;;24.20;99.90;;;;;;5097252;28;19934;-90
2022/07/30 08:15:08;;;;;;;;;;;24.20;99.90;;;;;;5096709;28;19908;-90
2022/07/30 08:17:38;;;;;;;;;;;24.40;99.90;;;;;;5097415;28;19957;-90
2022/07/30 08:20:04;;;;;;;;;;;24.90;99.90;;;;;;5097394;28;19908;-89
2022/07/30 08:22:29;;;;;;;;;;;25.90;99.90;;;;;;5097461;28;19908;-90
2022/07/30 08:24:55;;;;;;;;;;;26.00;99.90;;;;;;5097441;28;19908;-90
2022/07/30 08:27:32;;;;;;;;;;;25.40;99.90;;;;;;5090848;28;20373;-90
2022/07/30 08:29:57;;;;;;;;;;;26.00;99.90;;;;;;5087275;28;19985;-89
2022/07/30 08:32:29;;;;;;;;;;;26.80;99.90;;;;;;5083345;28;19960;-90
2022/07/30 08:34:55;;;;;;;;;;;27.70;99.90;;;;;;5059582;28;19919;-91
2022/07/30 08:37:20;;;;;;;;;;;28.60;99.90;;;;;;5076790;28;19913;-91
2022/07/30 08:39:46;;;;;;;;;;;29.20;99.90;;;;;;5079934;28;19912;-90
2022/07/30 08:42:12;;;;;;;;;;;29.40;99.90;;;;;;5076515;28;20293;-91
2022/07/30 08:44:39;;;;;;;;;;;30.20;99.90;;;;;;5076532;28;19959;-90
2022/07/30 08:47:06;;;;;;;;;;;30.80;99.90;;;;;;5076948;28;19909;-90
2022/07/30 08:49:32;;;;;;;;;;;30.20;99.90;;;;;;5076617;28;19912;-90
2022/07/30 08:51:57;;;;;;;;;;;29.10;99.90;;;;;;5077048;28;19909;-90
2022/07/30 08:54:23;;;;;;;;;;;28.10;99.90;;;;;;5085038;28;19913;-90
2022/07/30 08:56:49;;;;;;;;;;;28.00;99.90;;;;;;5077893;28;20338;-90
2022/07/30 08:59:16;;;;;;;;;;;28.10;99.90;;;;;;5084806;28;19939;-91
2022/07/30 09:01:41;;;;;;;;;;;28.00;99.90;;;;;;5086968;28;19946;-89
2022/07/30 09:04:07;;;;;;;;;;;27.50;99.90;;;;;;5082116;28;19913;-90
2022/07/30 09:06:33;;;;;;;;;;;28.10;99.90;;;;;;5086498;28;19934;-90
2022/07/30 09:08:58;;;;;;;;;;;27.70;99.90;;;;;;5076219;28;19920;-91
2022/07/30 09:11:24;;;;;;;;;;;27.40;99.90;;;;;;5091877;28;19914;-91
2022/07/30 09:13:49;;;;;;;;;;;28.00;99.90;;;;;;5095822;28;19987;-91
2022/07/30 09:16:22;;;;;;;;;;;29.30;99.90;;;;;;5095932;28;19931;-90
2022/07/30 09:18:49;;;;;;;;;;;30.50;99.90;;;;;;5096382;28;19916;-90
2022/07/30 09:21:17;;;;;;;;;;;31.40;98.80;;;;;;5096201;28;19923;-90
2022/07/30 09:24:00;;;;;;;;;;;32.40;94.40;;;;;;5095899;28;19908;-90
2022/07/30 09:26:26;;;;;;;;;;;33.00;92.30;;;;;;5085637;28;19957;-90
2022/07/30 09:28:52;;;;;;;;;;;32.90;90.50;;;;;;5077975;28;19960;-90
2022/07/30 09:31:18;;;;;;;;;;;32.50;86.60;;;;;;5092188;28;20373;-90
2022/07/30 09:33:45;;;;;;;;;;;32.10;87.00;;;;;;5091705;28;19915;-91
2022/07/30 09:36:11;;;;;;;;;;;31.10;91.30;;;;;;5075432;28;19908;-90
2022/07/30 09:38:50;;;;;;;;;;;32.00;91.30;;;;;;5075669;28;20274;-91
2022/07/30 09:41:16;;;;;;;;;;;32.90;86.10;;;;;;5075926;28;19908;-90
2022/07/30 09:43:46;;;;;;;;;;;33.20;81.80;;;;;;5075405;28;19913;-90
2022/07/30 09:46:12;;;;;;;;;;;34.20;78.10;;;;;;5075783;28;20441;-90
2022/07/30 09:48:41;;;;;;;;;;;35.40;72.60;;;;;;5075834;28;19913;-90
2022/07/30 09:51:06;;;;;;;;;;;35.90;68.10;;;;;;5075762;28;19909;-91
2022/07/30 09:53:32;;;;;;;;;;;37.20;64.10;;;;;;5075166;28;20377;-91
2022/07/30 09:55:58;;;;;;;;;;;36.50;59.60;;;;;;5075241;28;19913;-90
2022/07/30 09:58:35;;;;;;;;;;;35.70;59.10;;;;;;5075012;28;20460;-90
2022/07/30 10:01:01;;;;;;;;;;;35.10;58.00;;;;;;5088744;28;19912;-90
2022/07/30 10:03:27;;;;;;;;;;;34.60;57.00;;;;;;5095101;28;19916;-91
2022/07/30 10:05:54;;;;;;;;;;;34.70;58.90;;;;;;5095149;28;20002;-91
2022/07/30 10:08:36;;;;;;;;;;;34.40;57.70;;;;;;5095347;28;19950;-90
2022/07/30 10:11:02;;;;;;;;;;;34.00;58.50;;;;;;5094097;28;19918;-90
2022/07/30 10:13:28;;;;;;;;;;;34.00;58.90;;;;;;5093219;28;19908;-90
2022/07/30 10:15:53;;;;;;;;;;;33.30;58.50;;;;;;5093046;28;19908;-89
2022/07/30 10:18:19;;;;;;;;;;;32.00;58.90;;;;;;5093224;28;20007;-89
2022/07/30 10:20:45;;;;;;;;;;;32.20;61.10;;;;;;5093127;28;20365;-90
2022/07/30 10:23:10;;;;;;;;;;;32.80;59.60;;;;;;5093159;28;19922;-90
2022/07/30 10:25:37;;;;;;;;;;;33.20;56.80;;;;;;5092947;28;19915;-91
2022/07/30 10:28:02;;;;;;;;;;;33.50;57.50;;;;;;5092945;28;20129;-90
2022/07/30 10:30:29;;;;;;;;;;;33.20;59.50;;;;;;5093236;28;19908;-90
2022/07/30 10:32:55;;;;;;;;;;;32.70;54.30;;;;;;5091976;28;20440;-90
2022/07/30 10:35:21;;;;;;;;;;;32.30;53.10;;;;;;5083606;28;19957;-90
2022/07/30 10:37:48;;;;;;;;;;;32.40;54.90;;;;;;5092604;28;19912;-90
2022/07/30 10:40:16;;;;;;;;;;;33.00;56.30;;;;;;5092046;28;19908;-89
2022/07/30 10:42:45;;;;;;;;;;;33.40;55.60;;;;;;5092167;28;19912;-90
2022/07/30 10:45:29;;;;;;;;;;;32.70;56.00;;;;;;5092069;28;20113;-90
2022/07/30 10:47:55;;;;;;;;;;;32.90;57.70;;;;;;5091892;28;19969;-90
2022/07/30 10:50:25;;;;;;;;;;;33.90;56.10;;;;;;5088068;28;19920;-90
2022/07/30 10:52:51;;;;;;;;;;;34.60;56.40;;;;;;5077261;28;19908;-90
2022/07/30 10:55:21;;;;;;;;;;;35.00;55.40;;;;;;5083386;28;19915;-91
2022/07/30 10:58:05;;;;;;;;;;;34.20;53.60;;;;;;5086619;28;20304;-90
2022/07/30 11:00:32;;;;;;;;;;;33.50;54.30;;;;;;5079822;28;19913;-90
2022/07/30 11:03:09;;;;;;;;;;;33.10;54.90;;;;;;5081711;28;20228;-91
2022/07/30 11:05:35;;;;;;;;;;;32.70;55.30;;;;;;5091150;28;19907;-89
2022/07/30 11:08:19;;;;;;;;;;;31.60;54.30;;;;;;5082781;28;19912;-90
2022/07/30 11:10:45;;;;;;;;;;;30.90;56.70;;;;;;5081040;28;19909;-90
2022/07/30 11:13:10;;;;;;;;;;;30.30;58.10;;;;;;5079795;28;19908;-90
2022/07/30 11:15:55;;;;;;;;;;;30.00;59.40;;;;;;5091439;28;19908;-90
2022/07/30 11:18:22;;;;;;;;;;;29.70;59.90;;;;;;5091377;28;20377;-90
2022/07/30 11:21:07;;;;;;;;;;;29.10;59.20;;;;;;5091660;28;19912;-90
2022/07/30 11:23:37;;;;;;;;;;;28.80;62.10;;;;;;5091287;28;19998;-90
2022/07/30 11:26:06;;;;;;;;;;;28.30;62.00;;;;;;5091407;28;20369;-89
2022/07/30 11:28:36;;;;;;;;;;;28.10;59.90;;;;;;5091094;28;20011;-88
2022/07/30 11:31:02;;;;;;;;;;;27.80;62.00;;;;;;5083030;28;19912;-89
2022/07/30 11:33:27;;;;;;;;;;;27.70;60.50;;;;;;5090816;28;19912;-90
2022/07/30 11:36:06;;;;;;;;;;;27.70;61.50;;;;;;5091185;28;20442;-89
2022/07/30 11:38:50;;;;;;;;;;;27.50;63.10;;;;;;5082780;28;19946;-89
2022/07/30 11:41:15;;;;;;;;;;;27.40;63.10;;;;;;5091292;28;19908;-89
2022/07/30 11:43:41;;;;;;;;;;;27.50;64.70;;;;;;5080023;28;20350;-89
2022/07/30 11:46:12;;;;;;;;;;;27.40;62.70;;;;;;5091080;28;19908;-89
2022/07/30 11:48:41;;;;;;;;;;;27.40;63.70;;;;;;5071013;28;19908;-89
2022/07/30 11:51:07;;;;;;;;;;;27.40;63.80;;;;;;5071334;28;19947;-89
2022/07/30 11:53:33;;;;;;;;;;;27.50;66.10;;;;;;5071151;28;20382;-89
2022/07/30 11:55:59;;;;;;;;;;;27.60;63.20;;;;;;5070970;28;20153;-90
2022/07/30 11:58:30;;;;;;;;;;;27.50;61.70;;;;;;5070946;28;19912;-89
2022/07/30 12:00:59;;;;;;;;;;;27.70;62.80;;;;;;5073767;28;19912;-90
2022/07/30 12:03:30;;;;;;;;;;;27.90;60.30;;;;;;5090738;28;19916;-91
2022/07/30 12:06:02;;;;;;;;;;;27.90;59.30;;;;;;5091114;28;19915;-89
2022/07/30 12:08:27;;;;;;;;;;;27.80;60.60;;;;;;5076005;28;19923;-91
2022/07/30 12:10:54;;;;;;;;;;;27.80;61.30;;;;;;5070535;28;19909;-89
2022/07/30 12:13:20;;;;;;;;;;;27.80;58.50;;;;;;5076289;28;19908;-89
2022/07/30 12:15:47;;;;;;;;;;;27.80;60.10;;;;;;5090749;28;20285;-90
2022/07/30 12:18:21;;;;;;;;;;;27.80;59.80;;;;;;5090817;28;19944;-89
2022/07/30 12:20:52;;;;;;;;;;;27.90;59.00;;;;;;5090865;28;20053;-90
2022/07/30 12:23:18;;;;;;;;;;;28.00;58.40;;;;;;5090906;28;20365;-90
2022/07/30 12:25:43;;;;;;;;;;;28.10;58.80;;;;;;5090843;28;19908;-89
2022/07/30 12:28:09;;;;;;;;;;;28.50;57.80;;;;;;5090857;28;19991;-89
2022/07/30 12:30:38;;;;;;;;;;;28.90;58.10;;;;;;5090769;28;19908;-90
2022/07/30 12:33:05;;;;;;;;;;;29.20;58.60;;;;;;5090576;28;19908;-90
2022/07/30 12:35:50;;;;;;;;;;;29.70;56.60;;;;;;5090760;28;19984;-89
2022/07/30 12:38:17;;;;;;;;;;;30.10;55.60;;;;;;5090761;28;20280;-90
2022/07/30 12:40:53;;;;;;;;;;;29.90;56.80;;;;;;5090417;28;20339;-89
2022/07/30 12:43:37;;;;;;;;;;;29.40;55.60;;;;;;5090852;28;19973;-90
2022/07/30 12:46:04;;;;;;;;;;;29.10;55.50;;;;;;5091171;28;19915;-90
2022/07/30 12:48:29;;;;;;;;;;;29.00;56.70;;;;;;5094128;28;19915;-89
2022/07/30 12:51:07;;;;;;;;;;;28.90;56.90;;;;;;5094112;28;19908;-90
2022/07/30 12:53:33;;;;;;;;;;;28.80;57.90;;;;;;5094300;28;19908;-90
2022/07/30 12:56:12;;;;;;;;;;;28.80;58.70;;;;;;5093789;28;19918;-90
2022/07/30 12:58:38;;;;;;;;;;;28.70;57.50;;;;;;5094065;28;19939;-90
2022/07/30 13:01:04;;;;;;;;;;;28.40;59.50;;;;;;5093993;28;20289;-89
2022/07/30 13:03:38;;;;;;;;;;;28.30;59.00;;;;;;5093877;28;19950;-89
2022/07/30 13:06:15;;;;;;;;;;;28.30;59.00;;;;;;5093866;28;19908;-90
2022/07/30 13:08:52;;;;;;;;;;;28.40;58.70;;;;;;5093862;28;20400;-90
2022/07/30 13:11:18;;;;;;;;;;;28.40;59.20;;;;;;5093437;28;20385;-90
2022/07/30 13:13:44;;;;;;;;;;;28.40;59.40;;;;;;5093755;28;19931;-90
2022/07/30 13:16:09;;;;;;;;;;;28.60;61.70;;;;;;5093342;28;19908;-90
2022/07/30 13:18:35;;;;;;;;;;;28.80;62.80;;;;;;5093759;28;19918;-89
2022/07/30 13:21:01;;;;;;;;;;;28.90;61.10;;;;;;5093654;28;19951;-89
2022/07/30 13:23:27;;;;;;;;;;;28.80;59.70;;;;;;5093783;28;19943;-89
2022/07/30 13:25:52;;;;;;;;;;;28.50;59.30;;;;;;5093619;28;19908;-89
2022/07/30 13:28:18;;;;;;;;;;;28.50;59.60;;;;;;5093354;28;19951;-89
2022/07/30 13:30:44;;;;;;;;;;;28.50;61.10;;;;;;5093294;28;19922;-89
2022/07/30 13:33:10;;;;;;;;;;;28.70;60.20;;;;;;5093308;28;20357;-90
2022/07/30 13:35:38;;;;;;;;;;;28.90;60.50;;;;;;5093189;28;19915;-89
2022/07/30 13:38:05;;;;;;;;;;;28.90;60.40;;;;;;5093243;28;20361;-89
2022/07/30 13:40:31;;;;;;;;;;;28.90;59.80;;;;;;5093245;28;19908;-90
2022/07/30 13:43:00;;;;;;;;;;;28.80;60.40;;;;;;5093356;28;20292;-89
2022/07/30 13:45:25;;;;;;;;;;;28.90;60.70;;;;;;5092983;28;20293;-90
2022/07/30 13:47:51;;;;;;;;;;;29.20;62.10;;;;;;5093231;28;19918;-90
2022/07/30 13:50:17;;;;;;;;;;;29.60;60.70;;;;;;5093206;28;19908;-89
2022/07/30 13:52:42;;;;;;;;;;;29.60;59.00;;;;;;5093475;28;19908;-90
2022/07/30 13:55:08;;;;;;;;;;;29.50;62.10;;;;;;5093422;28;19943;-89
2022/07/30 13:57:33;;;;;;;;;;;29.70;60.90;;;;;;5092830;28;19977;-89
2022/07/30 13:59:59;;;;;;;;;;;29.70;59.50;;;;;;5093289;28;19908;-89
2022/07/30 14:02:24;;;;;;;;;;;29.70;59.00;;;;;;5093321;28;19915;-89
2022/07/30 14:04:50;;;;;;;;;;;29.50;58.60;;;;;;5094037;28;19908;-89
2022/07/30 14:07:15;;;;;;;;;;;29.20;58.80;;;;;;5094030;28;19912;-90
2022/07/30 14:09:41;;;;;;;;;;;29.10;59.60;;;;;;5092708;28;20278;-89
2022/07/30 14:12:07;;;;;;;;;;;29.20;60.10;;;;;;5091587;28;19912;-91
2022/07/30 14:14:32;;;;;;;;;;;29.20;59.80;;;;;;5089568;28;19955;-89
2022/07/30 14:16:58;;;;;;;;;;;29.20;59.10;;;;;;5079967;28;20011;-90
2022/07/30 14:19:23;;;;;;;;;;;29.10;58.60;;;;;;5082466;28;19907;-91